createdAt,value
2023-03-13T00:01:37.307Z,99537.22
2023-03-13T00:04:06.009Z,99536.91
2023-03-13T00:06:37.633Z,99538.05
2023-03-13T00:09:09.607Z,99537.86
2023-03-13T00:11:37.752Z,99535.93
2023-03-13T00:14:07.028Z,99537.11
2023-03-13T00:16:37.730Z,99537.65
2023-03-13T00:19:08.276Z,99543.09
2023-03-13T00:21:41.415Z,99543.15
2023-03-13T00:24:11.594Z,99540.67
2023-03-13T00:26:39.773Z,99540.48
2023-03-13T00:29:07.929Z,99544.70
2023-03-13T00:31:36.367Z,99540.59
2023-03-13T00:34:05.317Z,99538.45
2023-03-13T00:36:35.862Z,99542.56
2023-03-13T00:39:05.800Z,99541.96
2023-03-13T00:41:37.729Z,99537.20
2023-03-13T00:44:06.943Z,99542.86
2023-03-13T00:46:35.629Z,99541.48
2023-03-13T00:49:04.524Z,99541.20
2023-03-13T00:51:35.046Z,99538.48
2023-03-13T00:54:04.089Z,99536.30
2023-03-13T00:56:32.264Z,99538.38
2023-03-13T00:59:01.729Z,99543.21
2023-03-13T01:01:33.658Z,99546.04
2023-03-13T01:04:10.478Z,99539.41
2023-03-13T01:06:42.958Z,99539.02
2023-03-13T01:09:14.196Z,99542.89
2023-03-13T01:11:44.960Z,99539.69
2023-03-13T01:14:19.356Z,99537.67
2023-03-13T01:16:48.554Z,99539.48
2023-03-13T01:19:18.036Z,99545.71
2023-03-13T01:21:48.678Z,99545.08
2023-03-13T01:24:17.803Z,99548.22
2023-03-13T01:26:46.184Z,99545.42
2023-03-13T01:29:16.913Z,99548.46
2023-03-13T01:31:44.997Z,99546.64
2023-03-13T01:34:13.288Z,99540.94
2023-03-13T01:36:41.668Z,99547.14
2023-03-13T01:39:09.935Z,99547.55
2023-03-13T01:41:38.626Z,99548.33
2023-03-13T01:44:19.412Z,99551.08
2023-03-13T01:46:48.966Z,99556.50
2023-03-13T01:49:37.538Z,99552.54
2023-03-13T01:52:29.198Z,99558.81
2023-03-13T01:55:16.334Z,99557.77
2023-03-13T01:57:53.104Z,99560.79
2023-03-13T02:00:27.034Z,99553.45
2023-03-13T02:02:59.001Z,99553.86
2023-03-13T02:05:29.400Z,99554.43
2023-03-13T02:08:30.968Z,99555.56
2023-03-13T02:11:10.119Z,99556.60
2023-03-13T02:13:38.288Z,99556.14
2023-03-13T02:16:07.032Z,99559.16
2023-03-13T02:18:36.833Z,99558.31
2023-03-13T02:21:16.523Z,99557.96
2023-03-13T02:24:15.341Z,99556.90
2023-03-13T02:26:43.917Z,99554.17
2023-03-13T02:29:18.546Z,99551.70
2023-03-13T02:31:49.054Z,99552.05
2023-03-13T02:34:21.914Z,99543.66
2023-03-13T02:36:50.389Z,99546.03
2023-03-13T02:39:22.739Z,99550.29
2023-03-13T02:41:53.036Z,99552.92
2023-03-13T02:44:21.640Z,99553.33
2023-03-13T02:46:54.831Z,99556.02
2023-03-13T02:49:28.643Z,99553.35
2023-03-13T02:52:00.193Z,99552.21
2023-03-13T02:54:34.390Z,99549.56
2023-03-13T02:57:04.842Z,99544.71
2023-03-13T02:59:34.772Z,99543.59
2023-03-13T03:02:04.575Z,99538.95
2023-03-13T03:04:32.754Z,99529.23
2023-03-13T03:07:00.933Z,99533.09
2023-03-13T03:09:29.831Z,99526.97
2023-03-13T03:12:01.078Z,99524.33
2023-03-13T03:14:30.192Z,99518.66
2023-03-13T03:16:58.519Z,99514.88
2023-03-13T03:19:27.446Z,99513.33
2023-03-13T03:21:56.049Z,99515.16
2023-03-13T03:24:24.194Z,99514.42
2023-03-13T03:26:52.485Z,99516.34
2023-03-13T03:29:29.887Z,99518.17
2023-03-13T03:31:58.530Z,99518.69
2023-03-13T03:34:26.826Z,99524.77
2023-03-13T03:36:56.355Z,99525.70
2023-03-13T03:39:25.038Z,99523.35
2023-03-13T03:41:53.822Z,99521.75
2023-03-13T03:44:23.032Z,99517.38
2023-03-13T03:46:55.925Z,99519.52
2023-03-13T03:49:24.615Z,99523.61
2023-03-13T03:51:53.301Z,99526.63
2023-03-13T03:54:26.286Z,99525.71
2023-03-13T03:56:54.458Z,99522.59
2023-03-13T03:59:22.837Z,99526.20
2023-03-13T04:01:58.018Z,99521.92
2023-03-13T04:04:30.475Z,99520.34
2023-03-13T04:07:11.445Z,99520.59
2023-03-13T04:09:40.855Z,99514.95
2023-03-13T04:12:10.878Z,99506.60
2023-03-13T04:14:43.564Z,99500.10
2023-03-13T04:17:13.565Z,99495.64
2023-03-13T04:19:43.191Z,99495.75
2023-03-13T04:22:11.469Z,99487.73
2023-03-13T04:24:42.613Z,99485.59
2023-03-13T04:27:10.887Z,99478.06
2023-03-13T04:29:40.185Z,99479.14
2023-03-13T04:32:31.678Z,99477.79
2023-03-13T04:35:23.625Z,99470.98
2023-03-13T04:38:15.003Z,99466.84
2023-03-13T04:41:01.450Z,99464.86
2023-03-13T04:43:55.823Z,99461.98
2023-03-13T04:47:02.768Z,99457.58
2023-03-13T04:49:49.579Z,99452.80
2023-03-13T04:52:36.286Z,99448.45
2023-03-13T04:55:20.138Z,99447.34
2023-03-13T04:58:02.537Z,99455.07
2023-03-13T05:01:00.116Z,99459.08
2023-03-13T05:03:43.522Z,99454.23
2023-03-13T05:06:22.880Z,99454.39
2023-03-13T05:09:23.826Z,99452.13
2023-03-13T05:12:13.110Z,99444.52
2023-03-13T05:15:16.818Z,99444.36
2023-03-13T05:18:23.491Z,99437.46
2023-03-13T05:21:08.660Z,99439.55
2023-03-13T05:23:37.048Z,99440.42
2023-03-13T05:26:25.492Z,99436.59
2023-03-13T05:29:05.751Z,99432.70
2023-03-13T05:31:58.117Z,99430.07
2023-03-13T05:34:41.770Z,99429.25
2023-03-13T05:37:25.642Z,99419.98
2023-03-13T05:40:13.231Z,99414.19
2023-03-13T05:43:01.797Z,99412.56
2023-03-13T05:45:47.677Z,99408.00
2023-03-13T05:48:35.293Z,99414.46
2023-03-13T05:51:17.209Z,99410.29
2023-03-13T05:53:56.223Z,99407.98
2023-03-13T05:56:48.904Z,99407.64
2023-03-13T05:59:38.044Z,99404.84
2023-03-13T06:02:35.855Z,99401.73
2023-03-13T06:05:08.192Z,99404.53
2023-03-13T06:07:37.601Z,99399.21
2023-03-13T06:10:06.386Z,99394.73
2023-03-13T06:12:36.204Z,99391.77
2023-03-13T06:15:07.478Z,99395.09
2023-03-13T06:17:54.873Z,99390.12
2023-03-13T06:20:23.161Z,99387.98
2023-03-13T06:22:51.647Z,99388.45
2023-03-13T06:25:19.946Z,99382.74
2023-03-13T06:27:48.417Z,99375.08
2023-03-13T06:30:17.209Z,99373.27
2023-03-13T06:32:45.542Z,99371.69
2023-03-13T06:35:13.973Z,99374.53
2023-03-13T06:37:42.250Z,99371.30
2023-03-13T06:40:11.549Z,99373.88
2023-03-13T06:42:39.831Z,99369.69
2023-03-13T06:45:08.738Z,99377.99
2023-03-13T06:47:36.999Z,99370.85
2023-03-13T06:50:05.990Z,99371.30
2023-03-13T06:52:43.145Z,99367.93
2023-03-13T06:55:13.114Z,99359.72
2023-03-13T06:57:41.583Z,99359.60
2023-03-13T07:00:11.707Z,99364.61
2023-03-13T07:02:40.197Z,99359.86
2023-03-13T07:05:09.528Z,99349.96
2023-03-13T07:07:38.218Z,99340.95
2023-03-13T07:10:10.771Z,99332.21
2023-03-13T07:12:39.348Z,99327.84
2023-03-13T07:15:08.083Z,99325.08
2023-03-13T07:17:36.671Z,99329.31
2023-03-13T07:20:06.822Z,99324.55
2023-03-13T07:22:35.202Z,99321.34
2023-03-13T07:25:05.069Z,99318.02
2023-03-13T07:27:33.461Z,99314.98
2023-03-13T07:30:01.847Z,99314.13
2023-03-13T07:32:34.249Z,99310.44
2023-03-13T07:35:04.644Z,99298.45
2023-03-13T07:37:33.112Z,99285.11
2023-03-13T07:40:01.497Z,99287.33
2023-03-13T07:42:29.875Z,99306.89
2023-03-13T07:44:58.249Z,99309.43
2023-03-13T07:47:27.042Z,99311.08
2023-03-13T07:49:55.677Z,99313.85
2023-03-13T07:52:23.917Z,99311.90
2023-03-13T07:54:52.187Z,99312.83
2023-03-13T07:57:21.310Z,99304.91
2023-03-13T07:59:49.779Z,99294.00
2023-03-13T08:02:18.404Z,99289.10
2023-03-13T08:04:46.850Z,99288.00
2023-03-13T08:07:15.250Z,99287.13
2023-03-13T08:09:43.908Z,99277.76
2023-03-13T08:12:12.295Z,99275.89
2023-03-13T08:14:40.684Z,99272.58
2023-03-13T08:17:09.293Z,99261.34
2023-03-13T08:19:38.675Z,99265.36
2023-03-13T08:22:07.041Z,99273.86
2023-03-13T08:24:35.512Z,99276.49
2023-03-13T08:27:04.014Z,99268.16
2023-03-13T08:29:32.501Z,99277.88
2023-03-13T08:32:00.900Z,99274.95
2023-03-13T08:34:29.260Z,99270.48
2023-03-13T08:36:58.366Z,99268.81
2023-03-13T08:39:27.361Z,99260.30
2023-03-13T08:41:59.764Z,99253.51
2023-03-13T08:44:29.341Z,99244.73
2023-03-13T08:47:00.077Z,99245.48
2023-03-13T08:49:28.577Z,99252.92
2023-03-13T08:51:57.150Z,99247.86
2023-03-13T08:54:25.673Z,99237.40
2023-03-13T08:56:54.128Z,99227.33
2023-03-13T08:59:22.838Z,99208.98
2023-03-13T09:01:51.524Z,99216.20
2023-03-13T09:04:20.509Z,99208.13
2023-03-13T09:06:48.879Z,99199.53
2023-03-13T09:09:17.390Z,99192.80
2023-03-13T09:11:45.864Z,99190.79
2023-03-13T09:14:14.454Z,99184.07
2023-03-13T09:16:43.026Z,99180.15
2023-03-13T09:19:12.241Z,99166.56
2023-03-13T09:21:41.255Z,99157.84
2023-03-13T09:24:09.923Z,99155.40
2023-03-13T09:26:39.648Z,99155.48
2023-03-13T09:29:11.098Z,99149.25
2023-03-13T09:31:41.417Z,99144.22
2023-03-13T09:34:09.851Z,99131.52
2023-03-13T09:36:38.380Z,99127.08
2023-03-13T09:39:06.756Z,99124.60
2023-03-13T09:41:35.247Z,99116.42
2023-03-13T09:44:08.535Z,99109.15
2023-03-13T09:46:43.317Z,99108.49
2023-03-13T09:49:55.946Z,99101.97
2023-03-13T09:52:26.570Z,99093.70
2023-03-13T09:55:18.180Z,99088.45
2023-03-13T09:57:50.826Z,99089.21
2023-03-13T10:00:24.547Z,99083.52
2023-03-13T10:02:59.402Z,99080.84
2023-03-13T10:05:32.503Z,99084.36
2023-03-13T10:08:15.498Z,99079.96
2023-03-13T10:10:59.547Z,99077.58
2023-03-13T10:13:49.237Z,99074.83
2023-03-13T10:16:29.441Z,99065.30
2023-03-13T10:19:02.169Z,99060.63
2023-03-13T10:21:36.416Z,99060.88
2023-03-13T10:24:33.758Z,99054.21
2023-03-13T10:27:02.166Z,99051.00
2023-03-13T10:29:31.981Z,99047.73
2023-03-13T10:32:03.204Z,99045.61
2023-03-13T10:34:50.120Z,99043.08
2023-03-13T10:37:33.441Z,99046.86
2023-03-13T10:40:24.361Z,99048.98
2023-03-13T10:42:59.801Z,99053.69
2023-03-13T10:45:32.603Z,99060.47
2023-03-13T10:48:03.717Z,99069.42
2023-03-13T10:50:36.684Z,99069.75
2023-03-13T10:53:22.410Z,99069.73
2023-03-13T10:55:55.918Z,99070.17
2023-03-13T10:58:36.180Z,99072.00
2023-03-13T11:01:22.943Z,99079.33
2023-03-13T11:03:54.079Z,99077.86
2023-03-13T11:06:27.015Z,99082.89
2023-03-13T11:09:12.203Z,99083.36
2023-03-13T11:11:44.776Z,99072.48
2023-03-13T11:14:19.009Z,99067.09
2023-03-13T11:16:50.675Z,99064.01
2023-03-13T11:19:53.670Z,99060.95
2023-03-13T11:22:37.300Z,99054.55
2023-03-13T11:25:46.332Z,99052.91
2023-03-13T11:28:17.470Z,99027.55
2023-03-13T11:31:00.303Z,99020.73
2023-03-13T11:33:35.120Z,99014.51
2023-03-13T11:36:29.111Z,99016.00
2023-03-13T11:39:06.608Z,99008.48
2023-03-13T11:42:05.316Z,99006.92
2023-03-13T11:44:52.006Z,99006.20
2023-03-13T11:47:20.480Z,99001.73
2023-03-13T11:49:51.768Z,99000.33
2023-03-13T11:52:29.146Z,98992.58
2023-03-13T11:55:25.484Z,98987.77
2023-03-13T11:58:15.148Z,98990.37
2023-03-13T12:01:09.570Z,98980.64
2023-03-13T12:03:44.970Z,98973.25
2023-03-13T12:06:38.393Z,98974.20
2023-03-13T12:09:21.253Z,98975.66
2023-03-13T12:12:05.851Z,98973.20
2023-03-13T12:14:40.383Z,98979.41
2023-03-13T12:17:11.425Z,98979.38
2023-03-13T12:19:53.000Z,98976.18
2023-03-13T12:22:36.557Z,98977.84
2023-03-13T12:25:21.565Z,98977.80
2023-03-13T12:27:54.540Z,98974.31
2023-03-13T12:30:42.499Z,98960.33
2023-03-13T12:33:23.644Z,98951.91
2023-03-13T12:36:29.500Z,98942.69
2023-03-13T12:39:20.919Z,98939.03
2023-03-13T12:42:23.943Z,98940.99
2023-03-13T12:45:00.174Z,98933.34
2023-03-13T12:47:34.523Z,98940.97
2023-03-13T12:50:28.903Z,98947.35
2023-03-13T12:53:21.817Z,98942.80
2023-03-13T12:56:09.598Z,98937.05
2023-03-13T12:58:57.943Z,98936.94
2023-03-13T13:01:50.210Z,98935.16
2023-03-13T13:04:23.410Z,98933.88
2023-03-13T13:07:06.147Z,98937.91
2023-03-13T13:09:38.674Z,98936.27
2023-03-13T13:12:16.695Z,98938.75
2023-03-13T13:14:47.930Z,98944.49
2023-03-13T13:17:40.779Z,98945.08
2023-03-13T13:20:28.405Z,98944.45
2023-03-13T13:22:57.814Z,98938.75
2023-03-13T13:25:26.200Z,98940.95
2023-03-13T13:27:55.025Z,98933.64
2023-03-13T13:30:24.097Z,98932.36
2023-03-13T13:33:31.009Z,98930.50
2023-03-13T13:36:24.252Z,98917.50
2023-03-13T13:38:56.609Z,98919.88
2023-03-13T13:41:34.265Z,98923.52
2023-03-13T13:44:23.425Z,98922.48
2023-03-13T13:46:53.735Z,98924.33
2023-03-13T13:49:24.984Z,98923.17
2023-03-13T13:51:59.287Z,98927.73
2023-03-13T13:54:47.939Z,98925.60
2023-03-13T13:57:23.073Z,98916.23
2023-03-13T14:00:25.687Z,98910.84
2023-03-13T14:02:57.027Z,98912.65
2023-03-13T14:05:29.587Z,98909.84
2023-03-13T14:08:08.348Z,98914.44
2023-03-13T14:10:36.919Z,98920.99
2023-03-13T14:13:14.321Z,98923.61
2023-03-13T14:15:45.290Z,98915.96
2023-03-13T14:18:28.280Z,98916.97
2023-03-13T14:21:05.401Z,98915.97
2023-03-13T14:23:42.714Z,98920.05
2023-03-13T14:26:20.266Z,98914.63
2023-03-13T14:29:00.352Z,98914.33
2023-03-13T14:31:32.122Z,98924.26
2023-03-13T14:34:06.595Z,98931.73
2023-03-13T14:36:57.149Z,98925.97
2023-03-13T14:39:32.661Z,98925.35
2023-03-13T14:42:11.109Z,98926.31
2023-03-13T14:44:41.692Z,98919.37
2023-03-13T14:47:19.291Z,98912.53
2023-03-13T14:49:48.219Z,98913.39
2023-03-13T14:52:28.260Z,98907.98
2023-03-13T14:55:27.358Z,98913.19
2023-03-13T14:57:59.324Z,98912.10
2023-03-13T15:00:34.406Z,98911.51
2023-03-13T15:03:19.078Z,98908.77
2023-03-13T15:05:49.465Z,98897.77
2023-03-13T15:08:21.006Z,98902.95
2023-03-13T15:10:50.636Z,98906.09
2023-03-13T15:13:25.496Z,98910.77
2023-03-13T15:15:54.338Z,98902.45
2023-03-13T15:18:25.631Z,98892.30
2023-03-13T15:20:59.218Z,98881.27
2023-03-13T15:23:28.366Z,98877.95
2023-03-13T15:25:56.774Z,98878.62
2023-03-13T15:28:25.258Z,98880.91
2023-03-13T15:30:53.864Z,98877.50
2023-03-13T15:33:26.436Z,98875.42
2023-03-13T15:35:55.713Z,98872.02
2023-03-13T15:38:26.581Z,98865.20
2023-03-13T15:40:56.296Z,98865.38
2023-03-13T15:43:24.827Z,98861.02
2023-03-13T15:45:53.486Z,98855.21
2023-03-13T15:48:31.568Z,98849.61
2023-03-13T15:51:04.186Z,98843.85
2023-03-13T15:53:38.176Z,98844.45
2023-03-13T15:56:17.209Z,98843.35
2023-03-13T15:58:49.594Z,98823.64
2023-03-13T16:01:19.138Z,98821.38
2023-03-13T16:03:47.783Z,98814.36
2023-03-13T16:06:31.063Z,98814.88
2023-03-13T16:09:01.672Z,98822.27
2023-03-13T16:11:30.758Z,98820.91
2023-03-13T16:13:59.536Z,98827.38
2023-03-13T16:16:32.092Z,98828.69
2023-03-13T16:19:03.258Z,98821.31
2023-03-13T16:21:34.913Z,98814.39
2023-03-13T16:24:04.117Z,98809.98
2023-03-13T16:26:32.797Z,98813.58
2023-03-13T16:29:01.629Z,98806.36
2023-03-13T16:31:33.458Z,98802.37
2023-03-13T16:34:02.568Z,98804.34
2023-03-13T16:36:32.884Z,98807.34
2023-03-13T16:39:06.598Z,98797.00
2023-03-13T16:41:35.652Z,98784.59
2023-03-13T16:44:04.510Z,98779.82
2023-03-13T16:46:38.353Z,98772.74
2023-03-13T16:49:11.590Z,98775.41
2023-03-13T16:51:41.050Z,98780.67
2023-03-13T16:54:12.161Z,98787.05
2023-03-13T16:56:45.439Z,98786.14
2023-03-13T16:59:18.218Z,98783.02
2023-03-13T17:01:49.538Z,98787.60
2023-03-13T17:04:18.833Z,98792.64
2023-03-13T17:06:48.104Z,98786.83
2023-03-13T17:09:18.218Z,98788.81
2023-03-13T17:11:47.296Z,98784.39
2023-03-13T17:14:16.319Z,98775.92
2023-03-13T17:16:46.328Z,98768.80
2023-03-13T17:19:17.204Z,98762.41
2023-03-13T17:21:46.068Z,98764.23
2023-03-13T17:24:14.649Z,98769.88
2023-03-13T17:26:45.083Z,98767.42
2023-03-13T17:29:19.582Z,98770.13
2023-03-13T17:31:50.364Z,98770.96
2023-03-13T17:34:20.496Z,98775.23
2023-03-13T17:36:49.844Z,98773.23
2023-03-13T17:39:19.160Z,98764.76
2023-03-13T17:41:48.348Z,98773.86
2023-03-13T17:44:17.889Z,98773.70
2023-03-13T17:46:51.341Z,98773.52
2023-03-13T17:49:20.875Z,98768.33
2023-03-13T17:51:51.439Z,98776.55
2023-03-13T17:54:21.264Z,98782.20
2023-03-13T17:56:50.813Z,98775.77
2023-03-13T17:59:19.764Z,98766.45
2023-03-13T18:01:49.197Z,98763.09
2023-03-13T18:04:18.442Z,98762.22
2023-03-13T18:06:50.151Z,98769.94
2023-03-13T18:09:22.377Z,98769.64
2023-03-13T18:11:50.886Z,98768.25
2023-03-13T18:14:21.827Z,98761.57
2023-03-13T18:16:51.319Z,98773.67
2023-03-13T18:19:23.614Z,98771.70
2023-03-13T18:21:55.352Z,98766.91
2023-03-13T18:24:24.051Z,98764.66
2023-03-13T18:26:52.829Z,98754.61
2023-03-13T18:29:28.014Z,98755.58
2023-03-13T18:32:00.882Z,98747.67
2023-03-13T18:34:31.072Z,98740.02
2023-03-13T18:37:05.598Z,98733.96
2023-03-13T18:39:35.625Z,98739.89
2023-03-13T18:42:05.362Z,98747.67
2023-03-13T18:44:34.872Z,98755.47
2023-03-13T18:47:20.074Z,98746.04
2023-03-13T18:49:51.690Z,98751.58
2023-03-13T18:52:21.393Z,98753.70
2023-03-13T18:54:50.797Z,98748.22
2023-03-13T18:57:21.534Z,98740.11
2023-03-13T18:59:50.838Z,98738.27
2023-03-13T19:02:19.753Z,98745.50
2023-03-13T19:04:49.552Z,98749.91
2023-03-13T19:07:27.579Z,98752.39
2023-03-13T19:09:58.128Z,98743.01
2023-03-13T19:12:29.453Z,98738.37
2023-03-13T19:14:58.960Z,98731.42
2023-03-13T19:17:33.662Z,98725.06
2023-03-13T19:20:05.105Z,98726.26
2023-03-13T19:22:34.879Z,98731.96
2023-03-13T19:25:05.067Z,98721.90
2023-03-13T19:27:35.846Z,98722.02
2023-03-13T19:30:26.960Z,98721.11
2023-03-13T19:32:56.953Z,98715.39
2023-03-13T19:35:26.705Z,98711.54
2023-03-13T19:37:56.076Z,98710.20
2023-03-13T19:40:29.079Z,98699.93
2023-03-13T19:42:58.391Z,98701.50
2023-03-13T19:45:27.993Z,98706.00
2023-03-13T19:47:57.182Z,98707.09
2023-03-13T19:50:30.293Z,98700.77
2023-03-13T19:53:00.174Z,98700.46
2023-03-13T19:55:30.417Z,98699.15
2023-03-13T19:58:04.249Z,98693.38
2023-03-13T20:00:34.542Z,98684.28
2023-03-13T20:03:03.812Z,98681.67
2023-03-13T20:05:33.053Z,98678.99
2023-03-13T20:08:02.641Z,98677.77
2023-03-13T20:10:32.710Z,98677.95
2023-03-13T20:13:04.384Z,98682.63
2023-03-13T20:15:34.021Z,98680.56
2023-03-13T20:18:04.484Z,98671.70
2023-03-13T20:20:33.601Z,98665.17
2023-03-13T20:23:02.570Z,98663.69
2023-03-13T20:25:32.320Z,98658.32
2023-03-13T20:28:02.091Z,98655.23
2023-03-13T20:30:31.617Z,98644.92
2023-03-13T20:33:00.870Z,98641.92
2023-03-13T20:35:29.821Z,98638.11
2023-03-13T20:38:01.179Z,98631.56
2023-03-13T20:40:31.110Z,98633.36
2023-03-13T20:43:03.164Z,98630.36
2023-03-13T20:45:32.654Z,98623.75
2023-03-13T20:48:02.163Z,98621.23
2023-03-13T20:50:31.354Z,98613.16
2023-03-13T20:53:00.276Z,98610.99
2023-03-13T20:55:32.663Z,98605.34
2023-03-13T20:58:03.174Z,98598.03
2023-03-13T21:00:33.124Z,98591.93
2023-03-13T21:03:02.589Z,98589.98
2023-03-13T21:05:32.211Z,98587.23
2023-03-13T21:08:00.935Z,98576.92
2023-03-13T21:10:30.200Z,98564.98
2023-03-13T21:12:59.294Z,98568.63
2023-03-13T21:15:28.488Z,98567.92
2023-03-13T21:17:58.420Z,98569.70
2023-03-13T21:20:27.507Z,98566.56
2023-03-13T21:22:56.505Z,98565.59
2023-03-13T21:25:25.501Z,98561.55
2023-03-13T21:27:54.105Z,98559.83
2023-03-13T21:30:23.223Z,98552.45
2023-03-13T21:32:51.975Z,98547.20
2023-03-13T21:35:20.971Z,98547.25
2023-03-13T21:37:50.389Z,98537.52
2023-03-13T21:40:19.178Z,98532.37
2023-03-13T21:42:47.435Z,98531.88
2023-03-13T21:45:16.652Z,98533.50
2023-03-13T21:47:45.464Z,98540.00
2023-03-13T21:50:13.943Z,98538.04
2023-03-13T21:52:42.516Z,98535.00
2023-03-13T21:55:13.102Z,98532.41
2023-03-13T21:57:41.636Z,98527.90
2023-03-13T22:00:14.391Z,98521.13
2023-03-13T22:02:43.116Z,98520.00
2023-03-13T22:05:12.001Z,98514.61
2023-03-13T22:07:40.481Z,98517.42
2023-03-13T22:10:10.007Z,98508.26
2023-03-13T22:12:39.923Z,98509.67
2023-03-13T22:15:10.344Z,98497.60
2023-03-13T22:17:39.597Z,98500.14
2023-03-13T22:20:10.777Z,98510.77
2023-03-13T22:22:39.286Z,98513.53
2023-03-13T22:25:08.168Z,98503.82
2023-03-13T22:27:36.547Z,98507.33
2023-03-13T22:30:05.359Z,98503.02
2023-03-13T22:32:33.777Z,98494.70
2023-03-13T22:35:02.104Z,98489.20
2023-03-13T22:37:30.473Z,98486.36
2023-03-13T22:39:58.541Z,98494.29
2023-03-13T22:42:27.363Z,98537.73
2023-03-13T22:44:55.961Z,98580.48
2023-03-13T22:47:26.257Z,98550.45
2023-03-13T22:49:54.786Z,98501.84
2023-03-13T22:52:29.094Z,98555.60
2023-03-13T22:54:58.266Z,98618.48
2023-03-13T22:57:29.230Z,98608.71
2023-03-13T22:59:59.443Z,98563.54
2023-03-13T23:02:28.836Z,98547.84
2023-03-13T23:04:58.693Z,98537.49
2023-03-13T23:07:31.238Z,98520.46
2023-03-13T23:09:59.634Z,98519.60
2023-03-13T23:12:30.792Z,98534.56
2023-03-13T23:14:59.786Z,98562.80
2023-03-13T23:17:31.572Z,98560.19
2023-03-13T23:20:08.111Z,98540.15
2023-03-13T23:22:36.597Z,98521.11
2023-03-13T23:25:05.779Z,98505.15
2023-03-13T23:27:34.283Z,98506.10
2023-03-13T23:30:04.505Z,98508.72
2023-03-13T23:32:38.147Z,98510.14
2023-03-13T23:35:07.652Z,98514.86
2023-03-13T23:37:35.989Z,98500.52
2023-03-13T23:40:08.384Z,98483.89
2023-03-13T23:42:37.050Z,98476.40
2023-03-13T23:45:06.655Z,98482.28
2023-03-13T23:47:35.182Z,98476.96
2023-03-13T23:50:05.438Z,98475.00
2023-03-13T23:52:35.004Z,98475.65
2023-03-13T23:55:05.949Z,98470.91
2023-03-13T23:57:34.522Z,98461.95
